Time;durP1;ratioP1;P1;durP2;ratioP2;P2;SDS_P1;SDS_P2;PMS_P1;PMS_P2;Temp;Humidity;BMP_temperature;BMP_pressure;BME280_temperature;BME280_humidity;BME280_pressure;Samples;Min_cycle;Max_cycle;Signal;HPM_P1;HPM_P2
2023/01/31 00:01:25;;;;;;;21.52;3.90;;;4.10;99.90;;;;;;5065354;28;20096;-60
2023/01/31 00:03:59;;;;;;;18.52;3.85;;;4.00;99.90;;;;;;5062232;28;20098;-60
2023/01/31 00:06:26;;;;;;;20.17;4.18;;;4.00;99.90;;;;;;5080643;28;20082;-61
2023/01/31 00:08:53;;;;;;;22.52;3.42;;;4.00;99.90;;;;;;5066594;28;20418;-62
2023/01/31 00:11:22;;;;;;;19.15;3.97;;;4.00;99.90;;;;;;5060426;28;20367;-62
2023/01/31 00:13:48;;;;;;;15.80;4.03;;;3.90;99.90;;;;;;5081265;28;20069;-58
2023/01/31 00:16:15;;;;;;;20.88;3.55;;;4.00;99.90;;;;;;5082498;28;20399;-59
2023/01/31 00:18:42;;;;;;;15.05;3.38;;;4.00;99.90;;;;;;5083819;28;20053;-58
2023/01/31 00:21:13;;;;;;;23.65;4.28;;;3.90;99.90;;;;;;5082705;28;20043;-58
2023/01/31 00:23:40;;;;;;;19.13;3.20;;;3.90;99.90;;;;;;5063138;28;20044;-59
2023/01/31 00:26:11;;;;;;;20.45;3.67;;;3.90;99.90;;;;;;5078651;28;20096;-58
2023/01/31 00:28:37;;;;;;;20.20;3.33;;;3.80;99.90;;;;;;5065011;28;20368;-58
2023/01/31 00:31:02;;;;;;;22.90;3.85;;;3.90;99.90;;;;;;5065598;28;20402;-59
2023/01/31 00:33:28;;;;;;;22.92;4.10;;;3.90;99.90;;;;;;5065450;28;20044;-58
2023/01/31 00:35:53;;;;;;;20.17;4.07;;;3.90;99.90;;;;;;5062232;28;20037;-60
2023/01/31 00:38:19;;;;;;;16.45;3.47;;;3.90;99.90;;;;;;5064371;28;20032;-59
2023/01/31 00:40:54;;;;;;;16.70;3.05;;;3.90;99.90;;;;;;5083511;28;20036;-58
2023/01/31 00:43:20;;;;;;;19.65;3.95;;;3.90;99.90;;;;;;5081943;28;20044;-59
2023/01/31 00:45:45;;;;;;;18.45;3.42;;;3.90;99.90;;;;;;5061524;28;20114;-59
2023/01/31 00:48:11;;;;;;;23.52;3.03;;;3.90;99.90;;;;;;5064563;28;20047;-60
2023/01/31 00:50:37;;;;;;;22.65;3.75;;;3.80;99.90;;;;;;5081642;28;20041;-60
2023/01/31 00:53:03;;;;;;;22.42;4.60;;;3.80;99.90;;;;;;5063517;28;20054;-61
2023/01/31 00:55:28;;;;;;;38.75;6.93;;;3.80;99.90;;;;;;5060320;28;20067;-59
2023/01/31 00:57:54;;;;;;;44.20;8.98;;;3.80;99.90;;;;;;5064868;28;20365;-62
2023/01/31 01:00:19;;;;;;;31.80;5.82;;;3.80;99.90;;;;;;5081702;28;20032;-61
2023/01/31 01:02:45;;;;;;;25.15;3.95;;;3.80;99.90;;;;;;5064712;28;20097;-60
2023/01/31 01:05:10;;;;;;;26.17;4.40;;;3.80;99.90;;;;;;5061278;28;20127;-59
2023/01/31 01:07:36;;;;;;;48.47;10.70;;;3.80;99.90;;;;;;5082803;28;20394;-59
2023/01/31 01:10:02;;;;;;;40.55;8.77;;;3.80;99.90;;;;;;5078879;28;20029;-61
2023/01/31 01:12:28;;;;;;;28.23;5.43;;;3.80;99.90;;;;;;5063099;28;20040;-60
2023/01/31 01:14:53;;;;;;;20.35;4.35;;;3.90;99.90;;;;;;5062715;28;20065;-62
2023/01/31 01:17:19;;;;;;;21.10;4.05;;;3.90;99.90;;;;;;5064131;28;20542;-59
2023/01/31 01:19:45;;;;;;;21.58;4.55;;;3.80;99.90;;;;;;5063437;28;20432;-59
2023/01/31 01:22:14;;;;;;;14.48;3.17;;;3.90;99.90;;;;;;5062853;28;20036;-59
2023/01/31 01:24:41;;;;;;;19.52;4.05;;;3.80;99.90;;;;;;5057425;28;20473;-61
2023/01/31 01:27:07;;;;;;;21.08;3.70;;;3.90;99.90;;;;;;5081327;28;20028;-60
2023/01/31 01:29:33;;;;;;;19.65;3.63;;;3.90;99.90;;;;;;5065189;28;20422;-60
2023/01/31 01:31:59;;;;;;;24.45;4.15;;;3.90;99.90;;;;;;5061049;28;20044;-59
2023/01/31 01:34:25;;;;;;;19.95;3.30;;;3.90;99.90;;;;;;5060646;28;20044;-61
2023/01/31 01:36:50;;;;;;;16.50;3.20;;;3.90;99.90;;;;;;5080813;28;20573;-59
2023/01/31 01:39:16;;;;;;;18.75;3.47;;;3.90;99.90;;;;;;5081318;28;20043;-60
2023/01/31 01:41:42;;;;;;;18.48;3.13;;;3.90;99.90;;;;;;5081697;28;20056;-60
2023/01/31 01:44:45;;;;;;;16.35;3.55;;;3.80;99.90;;;;;;5079882;28;20048;-60
2023/01/31 01:47:31;;;;;;;14.38;2.88;;;3.70;99.90;;;;;;5062070;28;20078;-58
2023/01/31 01:50:14;;;;;;;16.83;3.00;;;3.60;99.90;;;;;;5081320;28;20094;-61
2023/01/31 01:52:51;;;;;;;17.10;3.35;;;3.60;99.90;;;;;;5060372;28;20051;-60
2023/01/31 01:55:27;;;;;;;16.73;3.63;;;3.60;99.90;;;;;;5060079;28;20037;-60
2023/01/31 01:57:58;;;;;;;19.88;2.95;;;3.50;99.90;;;;;;5062068;28;20412;-59
2023/01/31 02:00:27;;;;;;;17.63;2.88;;;3.50;99.90;;;;;;5060551;28;20432;-58
2023/01/31 02:03:00;;;;;;;20.58;3.35;;;3.40;99.90;;;;;;5062192;28;20527;-59
2023/01/31 02:05:37;;;;;;;18.92;3.63;;;3.40;99.90;;;;;;5080265;28;20408;-58
2023/01/31 02:08:03;;;;;;;16.38;3.20;;;3.40;99.90;;;;;;5061111;28;20060;-58
2023/01/31 02:10:37;;;;;;;15.77;2.97;;;3.30;99.90;;;;;;5082301;28;20082;-60
2023/01/31 02:13:03;;;;;;;13.52;2.90;;;3.30;99.90;;;;;;5078211;28;20044;-61
2023/01/31 02:15:30;;;;;;;16.13;2.97;;;3.40;99.90;;;;;;5076347;28;20460;-59
2023/01/31 02:17:56;;;;;;;15.57;3.25;;;3.40;99.90;;;;;;5063447;28;20041;-59
2023/01/31 02:20:32;;;;;;;12.90;3.15;;;3.40;99.90;;;;;;5063790;28;20398;-58
2023/01/31 02:23:09;;;;;;;18.40;3.08;;;3.40;99.90;;;;;;5062554;28;20455;-60
2023/01/31 02:25:58;;;;;;;14.25;2.90;;;3.50;99.90;;;;;;5058828;28;20131;-57
2023/01/31 02:28:31;;;;;;;16.13;3.13;;;3.50;99.90;;;;;;5077171;28;20036;-59
2023/01/31 02:31:42;;;;;;;12.63;2.53;;;3.50;99.90;;;;;;5064352;28;20090;-62
2023/01/31 02:34:15;;;;;;;14.80;3.15;;;3.60;99.90;;;;;;5076664;28;20134;-59
2023/01/31 02:37:06;;;;;;;15.75;3.13;;;3.70;99.90;;;;;;5060665;28;20033;-61
2023/01/31 02:39:44;;;;;;;18.70;3.15;;;3.80;99.90;;;;;;5063860;28;20059;-61
2023/01/31 02:42:22;;;;;;;16.88;3.35;;;3.80;99.90;;;;;;5064648;28;20052;-61
2023/01/31 02:45:05;;;;;;;11.52;3.15;;;3.90;99.90;;;;;;5064070;28;20029;-61
2023/01/31 02:47:56;;;;;;;14.43;3.53;;;3.90;99.90;;;;;;5079685;28;20032;-61
2023/01/31 02:50:28;;;;;;;12.18;3.10;;;4.00;99.90;;;;;;5096051;28;20068;-60
2023/01/31 02:53:24;;;;;;;12.82;3.00;;;3.90;99.90;;;;;;5066817;28;20051;-60
2023/01/31 02:58:49;;;;;;;17.17;3.60;;;4.00;99.90;;;;;;5064172;28;20040;-61
2023/01/31 03:01:21;;;;;;;16.25;2.90;;;4.00;99.90;;;;;;5083608;28;20058;-59
2023/01/31 03:03:48;;;;;;;15.63;3.53;;;4.00;99.90;;;;;;5085770;28;20048;-61
2023/01/31 03:06:22;;;;;;;14.27;3.22;;;4.00;99.90;;;;;;5067713;28;20100;-58
2023/01/31 03:09:20;;;;;;;15.35;3.53;;;4.00;99.90;;;;;;5066804;28;20106;-60
2023/01/31 03:11:52;;;;;;;12.77;3.33;;;3.90;99.90;;;;;;5067280;28;20055;-59
2023/01/31 03:14:52;;;;;;;17.52;3.28;;;3.90;99.90;;;;;;5068643;28;20059;-59
2023/01/31 03:17:47;;;;;;;12.30;3.35;;;3.90;99.90;;;;;;5051373;28;20044;-58
2023/01/31 03:20:31;;;;;;;12.68;3.58;;;3.90;99.90;;;;;;5051062;28;20103;-58
2023/01/31 03:23:07;;;;;;;16.27;3.95;;;3.90;99.90;;;;;;5084617;28;20360;-60
2023/01/31 03:25:36;;;;;;;13.95;3.33;;;3.90;99.90;;;;;;5096519;28;20460;-60
2023/01/31 03:28:05;;;;;;;15.73;3.22;;;3.90;99.90;;;;;;5064635;28;20075;-60
2023/01/31 03:30:53;;;;;;;14.98;3.65;;;4.00;99.90;;;;;;5083158;28;20537;-60
2023/01/31 03:33:35;;;;;;;15.52;3.22;;;4.00;99.90;;;;;;5083060;28;20046;-58
2023/01/31 03:36:24;;;;;;;17.10;3.05;;;4.00;99.90;;;;;;5095784;28;20090;-60
2023/01/31 03:38:55;;;;;;;17.20;3.35;;;4.10;99.90;;;;;;5084306;28;20043;-58
2023/01/31 03:42:01;;;;;;;13.68;2.85;;;4.10;99.90;;;;;;5067182;28;20389;-58
2023/01/31 03:44:52;;;;;;;17.05;3.10;;;4.10;99.90;;;;;;5062077;28;20052;-60
2023/01/31 03:47:28;;;;;;;16.27;4.65;;;4.20;99.90;;;;;;5063168;28;20037;-57
2023/01/31 03:49:58;;;;;;;18.77;3.88;;;4.30;99.90;;;;;;5064753;28;20052;-60
2023/01/31 03:52:34;;;;;;;18.52;3.67;;;4.30;99.90;;;;;;5081813;28;20070;-58
2023/01/31 03:55:09;;;;;;;20.23;3.72;;;4.40;99.90;;;;;;5077814;28;20044;-60
2023/01/31 03:57:39;;;;;;;20.15;3.90;;;4.50;99.90;;;;;;5084757;28;20043;-60
2023/01/31 04:00:09;;;;;;;17.95;4.07;;;4.50;99.90;;;;;;5064655;28;20074;-60
2023/01/31 04:02:37;;;;;;;18.88;4.10;;;4.50;99.90;;;;;;5083316;28;20105;-57
2023/01/31 04:05:15;;;;;;;18.73;3.83;;;4.50;99.90;;;;;;5080194;28;20032;-57
2023/01/31 04:07:42;;;;;;;16.48;3.63;;;4.50;99.90;;;;;;5061661;28;20040;-58
2023/01/31 04:10:17;;;;;;;19.92;4.28;;;4.50;99.90;;;;;;5083116;28;20041;-57
2023/01/31 04:12:43;;;;;;;16.52;4.38;;;4.60;99.90;;;;;;5046540;28;20101;-58
2023/01/31 04:15:10;;;;;;;19.15;4.53;;;4.60;99.90;;;;;;5061102;28;20540;-57
2023/01/31 04:17:35;;;;;;;17.92;4.00;;;4.60;99.90;;;;;;5082468;28;20401;-57
2023/01/31 04:20:01;;;;;;;18.90;3.60;;;4.60;99.90;;;;;;5098954;28;20139;-61
2023/01/31 04:22:27;;;;;;;21.33;4.10;;;4.60;99.90;;;;;;5064081;28;20043;-60
2023/01/31 04:24:56;;;;;;;22.67;4.88;;;4.60;99.90;;;;;;5061849;28;20037;-58
2023/01/31 04:27:21;;;;;;;20.08;4.47;;;4.60;99.90;;;;;;5063138;28;20036;-58
2023/01/31 04:29:47;;;;;;;16.80;4.25;;;4.70;99.90;;;;;;5064557;28;20321;-59
2023/01/31 04:32:13;;;;;;;22.30;5.15;;;4.70;99.90;;;;;;5081754;28;20064;-59
2023/01/31 04:34:38;;;;;;;17.95;4.30;;;4.70;99.90;;;;;;5061947;28;20044;-59
2023/01/31 04:37:04;;;;;;;23.55;4.50;;;4.70;99.90;;;;;;5064261;28;20032;-58
2023/01/31 04:39:29;;;;;;;26.95;4.97;;;4.60;99.90;;;;;;5066572;28;20044;-61
2023/01/31 04:41:55;;;;;;;23.27;5.38;;;4.70;99.90;;;;;;5049264;28;20136;-59
2023/01/31 04:44:20;;;;;;;18.60;4.55;;;4.70;99.90;;;;;;5069425;28;20131;-58
2023/01/31 04:46:46;;;;;;;22.42;4.50;;;4.70;99.90;;;;;;5069515;28;20040;-59
2023/01/31 04:49:13;;;;;;;18.33;4.78;;;4.70;99.90;;;;;;5065746;28;20032;-59
2023/01/31 04:51:38;;;;;;;23.98;5.20;;;4.70;99.90;;;;;;5081104;28;20036;-59
2023/01/31 04:54:04;;;;;;;20.73;5.00;;;4.70;99.90;;;;;;5072307;28;20066;-60
2023/01/31 04:56:30;;;;;;;19.70;5.15;;;4.70;99.90;;;;;;5067046;28;20055;-60
2023/01/31 04:58:56;;;;;;;24.00;5.30;;;4.70;99.90;;;;;;5068246;28;20131;-58
2023/01/31 05:01:22;;;;;;;23.10;6.10;;;4.70;99.90;;;;;;5081121;28;20185;-60
2023/01/31 05:03:48;;;;;;;24.23;5.88;;;4.80;99.90;;;;;;5083045;28;20047;-59
2023/01/31 05:06:13;;;;;;;24.38;5.75;;;4.80;99.90;;;;;;5050998;28;20040;-60
2023/01/31 05:08:39;;;;;;;20.35;4.93;;;4.70;99.90;;;;;;5063351;28;20076;-59
2023/01/31 05:11:05;;;;;;;19.75;5.40;;;4.70;99.90;;;;;;5066741;28;20372;-58
2023/01/31 05:13:32;;;;;;;28.10;5.82;;;4.70;99.90;;;;;;5065893;28;20048;-62
2023/01/31 05:15:58;;;;;;;22.73;5.63;;;4.70;99.90;;;;;;5065487;28;20509;-57
2023/01/31 05:18:24;;;;;;;28.08;5.68;;;4.70;99.90;;;;;;5052330;28;20118;-58
2023/01/31 05:20:50;;;;;;;21.10;6.07;;;4.70;99.90;;;;;;5067503;28;20037;-58
2023/01/31 05:23:17;;;;;;;25.77;6.05;;;4.60;99.90;;;;;;5067738;28;20049;-58
2023/01/31 05:25:43;;;;;;;24.63;6.13;;;4.70;99.90;;;;;;5079440;28;20055;-58
2023/01/31 05:28:10;;;;;;;22.75;5.90;;;4.70;99.90;;;;;;5066925;28;20025;-60
2023/01/31 05:30:36;;;;;;;19.52;6.15;;;4.70;99.90;;;;;;5080643;28;20417;-60
2023/01/31 05:33:01;;;;;;;28.40;6.93;;;4.70;99.90;;;;;;5067494;28;20119;-60
2023/01/31 05:35:27;;;;;;;27.55;7.28;;;4.80;99.90;;;;;;5065707;28;20087;-60
2023/01/31 05:37:56;;;;;;;24.33;7.72;;;4.80;99.90;;;;;;5079361;28;20356;-58
2023/01/31 05:40:22;;;;;;;23.75;7.28;;;4.80;99.90;;;;;;5061651;28;20041;-60
2023/01/31 05:42:55;;;;;;;31.08;7.30;;;4.90;99.90;;;;;;5062156;28;20051;-58
2023/01/31 05:45:21;;;;;;;29.98;7.35;;;5.00;99.90;;;;;;5057116;28;20041;-58
2023/01/31 05:47:47;;;;;;;35.28;8.32;;;5.00;99.90;;;;;;5062387;28;20051;-57
2023/01/31 05:50:13;;;;;;;28.45;7.07;;;5.00;99.90;;;;;;5046794;28;20107;-59
2023/01/31 05:52:39;;;;;;;26.35;6.95;;;5.00;99.90;;;;;;5058819;28;20101;-57
2023/01/31 05:55:05;;;;;;;28.90;7.40;;;5.00;99.90;;;;;;5058418;28;20037;-58
2023/01/31 05:57:30;;;;;;;31.83;8.60;;;5.00;99.90;;;;;;5071884;28;20505;-61
2023/01/31 05:59:56;;;;;;;25.48;7.25;;;5.00;99.90;;;;;;5044988;28;20075;-58
2023/01/31 06:02:22;;;;;;;25.20;7.22;;;5.10;99.90;;;;;;5048622;28;20040;-61
2023/01/31 06:04:48;;;;;;;24.77;8.05;;;5.10;99.90;;;;;;5061448;28;20425;-60
2023/01/31 06:07:14;;;;;;;23.77;8.38;;;5.10;99.90;;;;;;5059375;28;20040;-60
2023/01/31 06:09:40;;;;;;;33.72;8.70;;;5.10;99.90;;;;;;5065214;28;20511;-58
2023/01/31 06:12:11;;;;;;;24.38;8.45;;;5.20;99.90;;;;;;5062157;28;20067;-58
2023/01/31 06:14:37;;;;;;;33.63;9.10;;;5.10;99.90;;;;;;5051608;28;20468;-59
2023/01/31 06:17:03;;;;;;;30.52;8.77;;;5.30;99.90;;;;;;5045660;28;20121;-59
2023/01/31 06:19:28;;;;;;;25.80;7.78;;;5.20;99.90;;;;;;5063929;28;20375;-61
2023/01/31 06:21:54;;;;;;;26.30;7.97;;;5.20;99.90;;;;;;5065682;28;20080;-60
2023/01/31 06:24:20;;;;;;;30.10;7.50;;;5.30;99.90;;;;;;5058434;28;20040;-60
2023/01/31 06:26:48;;;;;;;26.08;7.78;;;5.20;99.90;;;;;;5061391;28;20044;-60
2023/01/31 06:29:14;;;;;;;27.77;8.15;;;5.20;99.90;;;;;;5062990;28;20045;-61
2023/01/31 06:31:44;;;;;;;26.27;7.97;;;5.30;99.90;;;;;;5063790;28;20115;-58
2023/01/31 06:34:10;;;;;;;29.48;7.93;;;5.30;99.90;;;;;;5064008;28;20448;-58
2023/01/31 06:36:35;;;;;;;29.65;8.95;;;5.40;99.90;;;;;;5063274;28;20052;-60
2023/01/31 06:39:02;;;;;;;29.95;7.57;;;5.40;99.90;;;;;;5086958;28;20089;-60
2023/01/31 06:41:28;;;;;;;29.85;7.30;;;5.40;99.90;;;;;;5082783;28;20119;-58
2023/01/31 06:43:54;;;;;;;21.33;7.00;;;5.50;99.90;;;;;;5066940;28;20131;-60
2023/01/31 06:46:20;;;;;;;27.58;7.70;;;5.50;99.90;;;;;;5067041;28;20024;-57
2023/01/31 06:48:47;;;;;;;24.77;7.00;;;5.50;99.90;;;;;;5084020;28;20040;-58
2023/01/31 06:51:13;;;;;;;24.55;7.50;;;5.60;99.90;;;;;;5064044;28;20036;-57
2023/01/31 06:53:39;;;;;;;24.50;6.80;;;5.60;99.90;;;;;;5082988;28;20040;-58
2023/01/31 06:56:05;;;;;;;26.92;7.07;;;5.70;99.90;;;;;;5081220;28;20528;-58
2023/01/31 06:58:32;;;;;;;32.95;7.78;;;5.70;99.90;;;;;;5065943;28;20122;-61
2023/01/31 07:01:07;;;;;;;25.65;7.05;;;5.70;99.90;;;;;;5050339;28;20470;-58
2023/01/31 07:03:33;;;;;;;27.90;6.78;;;5.80;99.90;;;;;;5085183;28;20048;-58
2023/01/31 07:05:58;;;;;;;23.95;7.25;;;5.80;99.90;;;;;;5065057;28;20076;-56
2023/01/31 07:08:24;;;;;;;28.95;7.05;;;5.80;99.90;;;;;;5064310;28;20471;-61
2023/01/31 07:10:49;;;;;;;30.08;9.15;;;5.90;99.90;;;;;;5066463;28;20060;-60
2023/01/31 07:13:15;;;;;;;24.50;7.35;;;5.90;99.90;;;;;;5066227;28;20514;-60
2023/01/31 07:15:41;;;;;;;23.33;8.23;;;5.90;99.90;;;;;;5064156;28;20044;-58
2023/01/31 07:18:06;;;;;;;26.52;7.10;;;5.90;99.90;;;;;;5065105;28;20041;-60
2023/01/31 07:20:32;;;;;;;23.48;5.88;;;5.90;99.90;;;;;;5065620;28;20455;-57
2023/01/31 07:22:58;;;;;;;22.20;6.55;;;6.00;99.90;;;;;;5067047;28;20036;-59
2023/01/31 07:25:25;;;;;;;23.90;6.75;;;6.00;99.90;;;;;;5065288;28;20043;-58
2023/01/31 07:27:51;;;;;;;25.02;6.57;;;6.00;99.90;;;;;;5065376;28;20350;-58
2023/01/31 07:30:17;;;;;;;23.83;5.43;;;5.90;99.90;;;;;;5067187;28;20043;-60
2023/01/31 07:32:42;;;;;;;28.02;6.65;;;5.90;99.90;;;;;;5065893;28;20098;-60
2023/01/31 07:35:08;;;;;;;22.45;6.43;;;6.00;99.90;;;;;;5062003;28;20048;-59
2023/01/31 07:37:34;;;;;;;30.00;8.80;;;5.90;99.90;;;;;;5065586;28;20066;-60
2023/01/31 07:39:59;;;;;;;32.72;8.40;;;5.90;99.90;;;;;;5066019;28;20154;-57
2023/01/31 07:42:27;;;;;;;29.55;9.38;;;5.90;99.90;;;;;;5065810;28;20051;-60
2023/01/31 07:44:52;;;;;;;30.95;10.48;;;5.90;99.90;;;;;;5063011;28;20044;-61
2023/01/31 07:47:18;;;;;;;29.95;8.38;;;5.90;99.90;;;;;;5065611;28;20394;-59
2023/01/31 07:49:43;;;;;;;24.98;6.55;;;5.90;99.90;;;;;;5064977;28;20068;-60
2023/01/31 07:52:09;;;;;;;23.15;7.82;;;5.90;99.90;;;;;;5081880;28;20376;-60
2023/01/31 07:54:35;;;;;;;32.33;9.32;;;5.90;99.90;;;;;;5063125;28;20058;-60
2023/01/31 07:57:00;;;;;;;35.65;11.93;;;6.00;99.90;;;;;;5066503;28;20117;-61
2023/01/31 07:59:26;;;;;;;31.95;9.88;;;6.00;99.90;;;;;;5065265;28;20043;-58
2023/01/31 08:04:35;;;;;;;28.02;6.93;;;6.10;99.90;;;;;;5048649;28;20051;-60
2023/01/31 08:07:04;;;;;;;24.30;6.75;;;6.10;99.90;;;;;;5049798;28;20040;-62
2023/01/31 08:09:30;;;;;;;21.98;4.65;;;6.10;99.90;;;;;;5084923;28;20040;-60
2023/01/31 08:11:55;;;;;;;25.75;5.75;;;6.20;99.90;;;;;;5063614;28;20059;-59
2023/01/31 08:14:24;;;;;;;24.95;5.88;;;6.20;99.90;;;;;;5064302;28;20474;-63
2023/01/31 08:16:50;;;;;;;22.73;5.15;;;6.20;99.90;;;;;;5066578;28;20036;-59
2023/01/31 08:19:16;;;;;;;23.42;5.90;;;6.20;99.90;;;;;;5064585;28;20047;-59
2023/01/31 08:21:41;;;;;;;25.92;5.65;;;6.20;99.90;;;;;;5048447;28;20036;-59
2023/01/31 08:24:07;;;;;;;24.30;5.93;;;6.10;99.90;;;;;;5098053;28;20047;-59
2023/01/31 08:26:33;;;;;;;25.20;5.90;;;6.20;99.90;;;;;;5060816;28;20046;-58
2023/01/31 08:28:58;;;;;;;22.02;5.32;;;6.20;99.90;;;;;;5100756;28;20028;-61
2023/01/31 08:31:26;;;;;;;25.13;5.75;;;6.20;99.90;;;;;;5082641;28;20029;-61
2023/01/31 08:33:52;;;;;;;25.15;4.80;;;6.30;99.90;;;;;;5063997;28;20102;-59
2023/01/31 08:36:20;;;;;;;25.27;5.07;;;6.30;99.90;;;;;;5064330;28;20365;-59
2023/01/31 08:38:46;;;;;;;16.95;4.63;;;6.30;99.90;;;;;;5064580;28;20082;-61
2023/01/31 08:41:12;;;;;;;20.38;5.20;;;6.30;99.90;;;;;;5066576;28;20429;-62
2023/01/31 08:43:38;;;;;;;17.65;4.55;;;6.30;99.90;;;;;;5082033;28;20040;-61
2023/01/31 08:46:05;;;;;;;22.15;4.20;;;6.30;99.90;;;;;;5080654;28;20031;-59
2023/01/31 08:48:33;;;;;;;23.13;4.78;;;6.30;99.90;;;;;;5065911;28;20508;-62
2023/01/31 08:51:07;;;;;;;21.95;4.63;;;6.30;99.90;;;;;;5081640;28;20044;-61
2023/01/31 08:53:33;;;;;;;23.77;4.95;;;6.30;99.90;;;;;;5066489;28;20040;-60
2023/01/31 08:56:04;;;;;;;17.80;4.35;;;6.30;99.90;;;;;;5062001;28;20143;-60
2023/01/31 08:58:34;;;;;;;15.18;4.63;;;6.30;99.90;;;;;;5063881;28;20074;-59
2023/01/31 09:01:09;;;;;;;22.63;5.88;;;6.30;99.90;;;;;;5062078;28;20032;-59
2023/01/31 09:03:34;;;;;;;23.38;5.78;;;6.40;99.90;;;;;;5063491;28;20475;-61
2023/01/31 09:06:01;;;;;;;22.25;4.70;;;6.40;99.90;;;;;;5063152;28;20086;-61
2023/01/31 09:08:28;;;;;;;21.20;5.53;;;6.40;99.90;;;;;;5064207;28;20039;-61
2023/01/31 09:10:55;;;;;;;16.05;3.88;;;6.40;99.90;;;;;;5063924;28;20417;-62
2023/01/31 09:13:21;;;;;;;19.70;4.20;;;6.50;99.90;;;;;;5063583;28;20040;-59
2023/01/31 09:15:56;;;;;;;17.67;4.30;;;6.50;99.90;;;;;;5079158;28;20375;-59
2023/01/31 09:18:21;;;;;;;19.02;5.03;;;6.50;99.90;;;;;;5078855;28;20502;-61
2023/01/31 09:20:47;;;;;;;15.00;4.15;;;6.60;99.90;;;;;;5063632;28;20040;-58
2023/01/31 09:23:12;;;;;;;15.85;4.68;;;6.60;99.90;;;;;;5062025;28;20044;-60
2023/01/31 09:25:38;;;;;;;23.58;5.47;;;6.60;99.90;;;;;;5062574;28;20032;-60
2023/01/31 09:28:04;;;;;;;19.35;5.30;;;6.70;99.90;;;;;;5063591;28;20097;-60
2023/01/31 09:30:29;;;;;;;24.77;4.70;;;6.70;99.90;;;;;;5080375;28;20467;-61
2023/01/31 09:32:55;;;;;;;22.25;4.78;;;6.70;99.90;;;;;;5064800;28;20097;-61
2023/01/31 09:35:20;;;;;;;16.83;4.00;;;6.80;99.90;;;;;;5062695;28;20127;-56
2023/01/31 09:37:46;;;;;;;20.85;4.05;;;6.90;99.90;;;;;;5062697;28;20146;-61
2023/01/31 09:40:21;;;;;;;20.02;3.88;;;7.00;99.90;;;;;;5096874;28;20043;-60
2023/01/31 09:42:48;;;;;;;17.98;3.90;;;7.00;99.90;;;;;;5075433;28;20490;-61
2023/01/31 09:45:35;;;;;;;14.15;4.25;;;7.10;99.90;;;;;;5044391;28;20182;-61
2023/01/31 09:48:01;;;;;;;19.75;3.83;;;7.00;99.90;;;;;;5063062;28;20040;-62
2023/01/31 09:50:36;;;;;;;23.20;5.20;;;7.20;99.90;;;;;;5063046;28;20048;-62
2023/01/31 09:53:02;;;;;;;17.98;5.25;;;7.10;99.90;;;;;;5060590;28;20448;-61
2023/01/31 09:55:43;;;;;;;18.08;4.93;;;7.10;99.90;;;;;;5063525;28;20066;-61
2023/01/31 09:58:24;;;;;;;19.15;4.53;;;7.10;99.90;;;;;;5081798;28;20059;-61
2023/01/31 10:01:02;;;;;;;26.52;4.90;;;7.20;99.90;;;;;;5061111;28;20486;-60
2023/01/31 10:04:01;;;;;;;17.92;4.10;;;7.20;99.90;;;;;;5046758;28;20361;-61
2023/01/31 10:06:46;;;;;;;19.58;5.07;;;7.20;99.90;;;;;;5035003;28;20059;-62
2023/01/31 10:09:39;;;;;;;20.13;4.82;;;7.10;99.90;;;;;;5079307;28;20032;-60
2023/01/31 10:12:10;;;;;;;22.23;4.68;;;7.20;99.90;;;;;;5059619;28;20143;-61
2023/01/31 10:14:46;;;;;;;18.90;4.88;;;7.20;99.90;;;;;;5080135;28;20055;-59
2023/01/31 10:17:27;;;;;;;19.67;4.05;;;7.30;99.90;;;;;;5063065;28;20436;-60
2023/01/31 10:20:09;;;;;;;18.83;4.88;;;7.20;99.90;;;;;;5060288;28;20412;-59
2023/01/31 10:22:43;;;;;;;14.25;4.05;;;7.30;99.90;;;;;;5059657;28;20110;-58
2023/01/31 10:25:25;;;;;;;16.50;4.20;;;7.30;99.90;;;;;;5062808;28;20036;-59
2023/01/31 10:28:10;;;;;;;23.55;5.38;;;7.30;99.90;;;;;;5061589;28;20032;-57
2023/01/31 10:30:40;;;;;;;31.83;6.22;;;7.30;99.90;;;;;;5064402;28;20295;-60
2023/01/31 10:33:21;;;;;;;24.40;5.68;;;7.30;99.90;;;;;;5062900;28;20048;-57
2023/01/31 10:35:49;;;;;;;27.17;6.93;;;7.40;99.90;;;;;;5060078;28;20055;-60
2023/01/31 10:38:29;;;;;;;22.27;5.47;;;7.40;99.90;;;;;;5063259;28;20501;-59
2023/01/31 10:41:08;;;;;;;35.42;8.27;;;7.40;99.90;;;;;;5062755;28;20127;-59
2023/01/31 10:43:40;;;;;;;39.40;10.27;;;7.50;99.90;;;;;;5065644;28;20057;-61
2023/01/31 10:46:13;;;;;;;31.48;8.30;;;7.50;99.90;;;;;;5061448;28;20063;-59
2023/01/31 10:48:42;;;;;;;28.50;8.95;;;7.50;99.90;;;;;;5060438;28;20051;-61
2023/01/31 10:51:49;;;;;;;24.27;6.55;;;7.40;99.90;;;;;;5064141;28;20509;-60
2023/01/31 10:54:40;;;;;;;27.60;7.32;;;7.40;99.90;;;;;;5054580;28;20048;-62
2023/01/31 10:57:05;;;;;;;41.03;13.00;;;7.40;99.90;;;;;;5043901;28;20122;-59
2023/01/31 10:59:39;;;;;;;31.25;9.70;;;7.40;99.90;;;;;;5065896;28;20473;-61
2023/01/31 11:02:21;;;;;;;37.40;10.65;;;7.50;99.90;;;;;;5062372;28;20098;-60
2023/01/31 11:04:53;;;;;;;30.73;10.60;;;7.40;99.90;;;;;;5060138;28;20111;-61
2023/01/31 11:07:19;;;;;;;30.73;10.73;;;7.50;99.90;;;;;;5065224;28;20033;-60
2023/01/31 11:10:26;;;;;;;29.55;10.48;;;7.60;99.90;;;;;;5065311;28;20046;-59
2023/01/31 11:13:06;;;;;;;30.48;7.95;;;7.60;99.90;;;;;;5065775;28;20044;-62
2023/01/31 11:15:38;;;;;;;33.75;9.88;;;7.50;99.90;;;;;;5060399;28;20052;-63
2023/01/31 11:18:04;;;;;;;28.13;9.40;;;7.60;99.90;;;;;;5061690;28;20037;-60
2023/01/31 11:20:34;;;;;;;33.55;10.95;;;7.60;99.90;;;;;;5067552;28;20040;-61
2023/01/31 11:23:01;;;;;;;37.17;10.00;;;7.50;99.90;;;;;;5079875;28;20032;-62
2023/01/31 11:25:29;;;;;;;36.22;11.57;;;7.60;99.90;;;;;;5065790;28;20036;-60
2023/01/31 11:28:15;;;;;;;38.05;12.20;;;7.60;99.90;;;;;;5067727;28;20116;-60
2023/01/31 11:30:46;;;;;;;33.10;9.88;;;7.60;99.90;;;;;;5063140;28;20040;-58
2023/01/31 11:33:44;;;;;;;34.63;11.25;;;7.60;99.90;;;;;;5068966;28;20044;-60
2023/01/31 11:36:12;;;;;;;22.17;6.18;;;7.70;99.90;;;;;;5062714;28;20036;-62
2023/01/31 11:38:38;;;;;;;23.90;6.20;;;7.70;99.90;;;;;;5083727;28;20114;-59
2023/01/31 11:41:34;;;;;;;23.27;5.38;;;7.80;99.90;;;;;;5067687;28;20162;-61
2023/01/31 11:44:16;;;;;;;27.48;6.60;;;7.80;99.90;;;;;;5064824;28;20044;-59
2023/01/31 11:46:55;;;;;;;28.75;5.50;;;7.90;99.90;;;;;;5063430;28;20032;-60
2023/01/31 11:49:40;;;;;;;23.65;6.50;;;7.80;99.90;;;;;;5065516;28;20044;-60
2023/01/31 11:52:21;;;;;;;21.48;4.90;;;7.90;99.90;;;;;;5082758;28;20068;-59
2023/01/31 11:54:53;;;;;;;19.40;5.25;;;7.90;99.90;;;;;;5064534;28;20087;-61
2023/01/31 11:57:29;;;;;;;23.13;6.00;;;7.90;99.90;;;;;;5065771;28;20866;-60
2023/01/31 11:59:57;;;;;;;22.75;6.38;;;7.90;99.90;;;;;;5065831;28;20040;-60
2023/01/31 12:02:37;;;;;;;27.58;8.30;;;8.00;99.90;;;;;;5067229;28;20082;-59
2023/01/31 12:05:09;;;;;;;25.67;7.60;;;8.00;99.90;;;;;;5075439;28;20040;-61
2023/01/31 12:08:01;;;;;;;32.83;8.85;;;8.10;99.90;;;;;;5068212;28;20086;-59
2023/01/31 12:10:40;;;;;;;24.40;6.95;;;8.10;99.90;;;;;;5060554;28;20052;-61
2023/01/31 12:13:18;;;;;;;30.35;8.73;;;8.10;99.90;;;;;;5063255;28;20356;-61
2023/01/31 12:15:54;;;;;;;21.50;6.35;;;8.10;99.90;;;;;;5061564;28;20044;-58
2023/01/31 12:18:48;;;;;;;23.40;7.15;;;8.20;99.90;;;;;;5062131;28;20040;-58
2023/01/31 12:21:43;;;;;;;24.52;6.28;;;8.20;99.90;;;;;;5049544;28;20056;-61
2023/01/31 12:24:23;;;;;;;22.80;5.57;;;8.20;99.90;;;;;;5059165;28;20373;-58
2023/01/31 12:27:11;;;;;;;40.17;8.27;;;8.30;99.90;;;;;;5064341;28;20044;-59
2023/01/31 12:30:12;;;;;;;36.63;8.57;;;8.30;99.90;;;;;;5066377;28;20057;-58
2023/01/31 12:32:55;;;;;;;27.67;6.68;;;8.50;99.90;;;;;;5063546;28;20067;-59
2023/01/31 12:35:58;;;;;;;29.83;7.45;;;8.50;99.90;;;;;;5061162;28;20048;-59
2023/01/31 12:38:53;;;;;;;23.95;7.18;;;8.50;99.90;;;;;;5064998;28;20032;-59
2023/01/31 12:41:22;;;;;;;;;;;8.60;99.90;;;;;;5064303;28;20047;-58
2023/01/31 12:44:15;;;;;;;22.80;6.38;;;8.60;99.90;;;;;;5064148;28;20351;-61
2023/01/31 12:46:57;;;;;;;16.80;4.75;;;8.70;99.90;;;;;;5059216;28;20444;-58
2023/01/31 12:50:11;;;;;;;23.23;6.57;;;8.80;99.90;;;;;;5061371;28;20040;-59
2023/01/31 12:53:15;;;;;;;22.92;6.40;;;8.80;99.90;;;;;;4972639;28;20054;-61
2023/01/31 12:56:16;;;;;;;20.17;4.88;;;8.70;99.90;;;;;;5058351;28;20116;-60
2023/01/31 12:58:50;;;;;;;19.85;5.50;;;8.70;99.90;;;;;;5061928;28;20087;-59
2023/01/31 13:01:39;;;;;;;21.23;5.10;;;8.80;99.90;;;;;;5081313;28;20111;-61
2023/01/31 13:04:25;;;;;;;15.80;4.40;;;8.80;99.90;;;;;;5064213;28;20040;-61
2023/01/31 13:07:03;;;;;;;22.80;5.15;;;8.80;99.90;;;;;;5061966;28;20431;-61
2023/01/31 13:09:35;;;;;;;20.67;5.10;;;8.70;99.90;;;;;;5064466;28;20045;-60
2023/01/31 13:12:18;;;;;;;19.95;5.05;;;8.80;99.90;;;;;;5059379;28;20086;-61
2023/01/31 13:15:27;;;;;;;20.73;5.05;;;8.80;99.90;;;;;;5060427;28;20032;-60
2023/01/31 13:17:59;;;;;;;22.55;5.63;;;8.80;99.90;;;;;;5079984;28;20044;-60